Time;durP1;ratioP1;P1;durP2;ratioP2;P2;SDS_P1;SDS_P2;PMS_P1;PMS_P2;Temp;Humidity;BMP_temperature;BMP_pressure;BME280_temperature;BME280_humidity;BME280_pressure;Samples;Min_cycle;Max_cycle;Signal;HPM_P1;HPM_P2
2024/04/25 00:01:36;;;;;;;6.30;4.90;;;;;;;;;;5329095;26;20243;-79
2024/04/25 00:04:03;;;;;;;5.57;5.13;;;;;;;;;;5324514;26;20362;-87
2024/04/25 00:06:31;;;;;;;3.08;2.95;;;;;;;;;;5334741;26;20297;-79
2024/04/25 00:08:58;;;;;;;3.65;3.33;;;;;;;;;;5330661;26;20251;-79
2024/04/25 00:11:26;;;;;;;5.65;5.28;;;;;;;;;;5302936;26;20269;-79
2024/04/25 00:13:54;;;;;;;5.82;3.75;;;;;;;;;;5309424;26;20228;-79
2024/04/25 00:16:21;;;;;;;7.45;6.93;;;;;;;;;;5312657;26;20325;-78
2024/04/25 00:18:49;;;;;;;7.10;6.55;;;;;;;;;;5332945;26;20576;-78
2024/04/25 00:21:17;;;;;;;3.65;3.45;;;;;;;;;;5330536;26;20356;-79
2024/04/25 00:23:44;;;;;;;3.17;3.03;;;;;;;;;;5335123;26;20232;-79
2024/04/25 00:26:12;;;;;;;4.50;3.78;;;;;;;;;;5317322;26;20217;-79
2024/04/25 00:28:39;;;;;;;3.55;3.35;;;;;;;;;;5328914;26;20274;-78
2024/04/25 00:31:07;;;;;;;9.02;6.82;;;;;;;;;;5325686;26;20373;-78
2024/04/25 00:33:34;;;;;;;6.80;4.18;;;;;;;;;;5323474;26;20368;-80
2024/04/25 00:36:02;;;;;;;5.07;4.72;;;;;;;;;;5337723;26;20216;-78
2024/04/25 00:38:29;;;;;;;4.22;3.92;;;;;;;;;;5337647;26;20224;-80
2024/04/25 00:40:57;;;;;;;3.53;3.40;;;;;;;;;;5324092;26;20220;-79
2024/04/25 00:43:28;;;;;;;3.47;3.38;;;;;;;;;;5338096;26;20275;-80
2024/04/25 00:45:56;;;;;;;3.53;3.20;;;;;;;;;;5358339;26;20249;-79
2024/04/25 00:48:24;;;;;;;2.40;2.30;;;;;;;;;;5355080;26;20219;-78
2024/04/25 00:50:53;;;;;;;9.90;5.00;;;;;;;;;;5347442;26;20223;-79
2024/04/25 00:53:20;;;;;;;4.97;4.53;;;;;;;;;;5334463;26;20276;-80
2024/04/25 00:55:49;;;;;;;2.83;2.45;;;;;;;;;;5315100;26;20325;-78
2024/04/25 00:58:20;;;;;;;6.22;2.22;;;;;;;;;;5343939;26;20239;-78
2024/04/25 01:00:49;;;;;;;3.10;2.90;;;;;;;;;;5349433;26;20262;-78
2024/04/25 01:03:17;;;;;;;2.47;2.33;;;;;;;;;;5336410;26;20326;-77
2024/04/25 01:05:46;;;;;;;2.40;2.30;;;;;;;;;;5332113;26;20268;-77
2024/04/25 01:08:14;;;;;;;3.10;2.85;;;;;;;;;;5332389;26;20219;-78
2024/04/25 01:10:42;;;;;;;3.10;2.85;;;;;;;;;;5327340;26;20212;-79
2024/04/25 01:13:10;;;;;;;3.78;3.58;;;;;;;;;;5312145;26;20250;-78
2024/04/25 01:15:37;;;;;;;2.25;2.15;;;;;;;;;;5318453;26;20281;-77
2024/04/25 01:18:05;;;;;;;2.45;2.28;;;;;;;;;;5339524;26;20289;-79
2024/04/25 01:20:34;;;;;;;3.00;2.80;;;;;;;;;;5346840;26;20215;-78
2024/04/25 01:23:05;;;;;;;2.90;2.70;;;;;;;;;;5343389;26;20230;-79
2024/04/25 01:25:34;;;;;;;2.38;2.15;;;;;;;;;;5336108;26;20271;-78
2024/04/25 01:28:02;;;;;;;1.38;1.38;;;;;;;;;;5326935;26;20519;-79
2024/04/25 01:30:30;;;;;;;2.45;2.25;;;;;;;;;;5348412;26;20256;-79
2024/04/25 01:32:59;;;;;;;2.42;2.33;;;;;;;;;;5318966;26;20226;-79
2024/04/25 01:35:29;;;;;;;1.45;1.45;;;;;;;;;;5325346;26;20310;-78
2024/04/25 01:38:00;;;;;;;4.18;3.97;;;;;;;;;;5316099;26;20237;-79
2024/04/25 01:40:27;;;;;;;3.30;3.00;;;;;;;;;;5300488;27;20264;-81
2024/04/25 01:42:55;;;;;;;3.08;2.88;;;;;;;;;;5303879;26;20263;-79
2024/04/25 01:45:22;;;;;;;3.58;2.47;;;;;;;;;;5323381;26;20216;-78
2024/04/25 01:47:50;;;;;;;2.80;2.70;;;;;;;;;;5323838;26;20220;-81
2024/04/25 01:50:18;;;;;;;4.90;4.60;;;;;;;;;;5327410;26;20317;-77
2024/04/25 01:52:45;;;;;;;1.95;1.85;;;;;;;;;;5338204;26;20310;-80
2024/04/25 01:55:13;;;;;;;1.48;1.48;;;;;;;;;;5338176;26;20288;-79
2024/04/25 01:57:40;;;;;;;5.30;3.53;;;;;;;;;;5338281;26;20243;-78
2024/04/25 02:00:08;;;;;;;2.22;1.52;;;;;;;;;;5330630;26;20231;-78
2024/04/25 02:02:35;;;;;;;2.70;2.58;;;;;;;;;;5324272;26;20262;-78
2024/04/25 02:05:03;;;;;;;5.03;4.72;;;;;;;;;;5310427;26;20216;-78
2024/04/25 02:07:32;;;;;;;3.22;3.03;;;;;;;;;;5335403;26;20261;-78
2024/04/25 02:10:00;;;;;;;6.13;3.15;;;;;;;;;;5327774;26;20275;-78
2024/04/25 02:12:28;;;;;;;6.72;4.88;;;;;;;;;;5339528;26;20242;-78
2024/04/25 02:14:56;;;;;;;1.42;1.42;;;;;;;;;;5350091;26;20227;-79
2024/04/25 02:17:23;;;;;;;12.75;4.53;;;;;;;;;;5311830;26;20255;-78
2024/04/25 02:19:50;;;;;;;1.60;1.60;;;;;;;;;;5323737;26;20289;-78
2024/04/25 02:25:16;;;;;;;4.68;3.90;;;;;;;;;;5326039;26;20216;-79
2024/04/25 02:27:45;;;;;;;2.72;2.63;;;;;;;;;;5321412;26;20376;-78
2024/04/25 02:30:12;;;;;;;3.78;3.53;;;;;;;;;;5326057;26;20235;-77
2024/04/25 02:32:42;;;;;;;1.88;1.77;;;;;;;;;;5332698;26;20292;-78
2024/04/25 02:35:09;;;;;;;3.78;3.58;;;;;;;;;;5334799;26;20328;-77
2024/04/25 02:37:37;;;;;;;3.50;3.30;;;;;;;;;;5320920;26;20254;-77
2024/04/25 02:40:05;;;;;;;1.85;1.75;;;;;;;;;;5321174;26;20276;-79
2024/04/25 02:42:32;;;;;;;4.82;2.80;;;;;;;;;;5321757;26;20283;-78
2024/04/25 02:45:00;;;;;;;12.50;2.22;;;;;;;;;;5317741;26;20272;-77
2024/04/25 02:47:27;;;;;;;4.32;3.97;;;;;;;;;;5321348;26;20259;-78
2024/04/25 02:49:55;;;;;;;3.53;3.33;;;;;;;;;;5324524;26;20547;-78
2024/04/25 02:52:22;;;;;;;4.20;4.00;;;;;;;;;;5326540;26;20266;-78
2024/04/25 02:54:52;;;;;;;2.63;2.35;;;;;;;;;;5323555;26;20235;-78
2024/04/25 02:57:20;;;;;;;2.75;2.65;;;;;;;;;;5310388;26;20246;-78
2024/04/25 02:59:47;;;;;;;2.42;2.33;;;;;;;;;;5324468;26;20287;-79
2024/04/25 03:02:15;;;;;;;2.75;2.60;;;;;;;;;;5315748;26;20234;-79
2024/04/25 03:04:43;;;;;;;4.10;3.80;;;;;;;;;;5318081;26;20220;-79
2024/04/25 03:07:10;;;;;;;3.15;2.97;;;;;;;;;;5312816;26;20454;-79
2024/04/25 03:09:38;;;;;;;3.45;3.20;;;;;;;;;;5324590;26;20305;-79
2024/04/25 03:12:05;;;;;;;3.30;2.00;;;;;;;;;;5329313;26;22960;-80
2024/04/25 03:14:32;;;;;;;2.38;2.28;;;;;;;;;;5327588;26;20539;-78
2024/04/25 03:17:00;;;;;;;1.52;1.42;;;;;;;;;;5324341;26;20232;-78
2024/04/25 03:19:28;;;;;;;1.83;1.73;;;;;;;;;;5339727;26;20258;-77
2024/04/25 03:21:55;;;;;;;2.45;2.35;;;;;;;;;;5325477;27;20275;-78
2024/04/25 03:24:23;;;;;;;4.60;3.80;;;;;;;;;;5338870;26;20481;-76
2024/04/25 03:26:50;;;;;;;5.88;4.95;;;;;;;;;;5339052;26;20283;-80
2024/04/25 03:29:20;;;;;;;8.32;6.90;;;;;;;;;;5325907;26;20266;-80
2024/04/25 03:31:50;;;;;;;2.63;2.42;;;;;;;;;;5325939;26;20224;-79
2024/04/25 03:34:17;;;;;;;1.75;1.67;;;;;;;;;;5347417;26;20410;-79
2024/04/25 03:36:45;;;;;;;5.53;5.00;;;;;;;;;;5342595;26;20273;-79
2024/04/25 03:39:19;;;;;;;2.60;2.40;;;;;;;;;;5323641;27;20228;-78
2024/04/25 03:41:48;;;;;;;1.13;1.13;;;;;;;;;;5325115;26;20223;-78
2024/04/25 03:44:15;;;;;;;5.72;5.20;;;;;;;;;;5331596;26;20324;-80
2024/04/25 03:46:47;;;;;;;2.85;2.65;;;;;;;;;;5332718;26;20216;-79
2024/04/25 03:49:14;;;;;;;4.60;4.28;;;;;;;;;;5330036;26;20280;-79
2024/04/25 03:51:42;;;;;;;5.85;3.88;;;;;;;;;;5330440;26;20333;-77
2024/04/25 03:54:10;;;;;;;12.93;4.57;;;;;;;;;;5329513;26;20236;-78
2024/04/25 03:56:37;;;;;;;2.47;2.38;;;;;;;;;;5333907;26;20228;-78
2024/04/25 03:59:06;;;;;;;3.45;3.25;;;;;;;;;;5321034;26;20563;-77
2024/04/25 04:01:33;;;;;;;3.88;3.67;;;;;;;;;;5308274;26;20259;-78
2024/04/25 04:04:01;;;;;;;5.13;4.82;;;;;;;;;;5336079;26;20325;-80
2024/04/25 04:06:28;;;;;;;2.58;2.47;;;;;;;;;;5350709;26;20228;-80
2024/04/25 04:08:56;;;;;;;6.43;5.93;;;;;;;;;;5337582;26;20215;-81
2024/04/25 04:11:23;;;;;;;5.18;4.43;;;;;;;;;;5323432;26;20240;-78
2024/04/25 04:13:51;;;;;;;3.85;3.60;;;;;;;;;;5309428;26;20217;-77
2024/04/25 04:16:18;;;;;;;5.60;2.75;;;;;;;;;;5324278;26;20267;-78
2024/04/25 04:18:46;;;;;;;3.28;3.08;;;;;;;;;;5329474;26;20212;-79
2024/04/25 04:21:14;;;;;;;2.13;2.03;;;;;;;;;;5309651;26;20279;-78
2024/04/25 04:23:42;;;;;;;4.25;2.80;;;;;;;;;;5335265;26;20251;-77
2024/04/25 04:26:10;;;;;;;1.00;1.00;;;;;;;;;;5336605;26;20222;-79
2024/04/25 04:28:37;;;;;;;2.88;2.67;;;;;;;;;;5323322;26;20216;-78
2024/04/25 04:31:06;;;;;;;4.28;4.10;;;;;;;;;;5334111;26;20504;-78
2024/04/25 04:33:34;;;;;;;1.63;1.63;;;;;;;;;;5324052;26;20220;-78
2024/04/25 04:36:07;;;;;;;5.78;5.28;;;;;;;;;;5350403;26;20215;-78
2024/04/25 04:38:35;;;;;;;2.10;2.00;;;;;;;;;;5339707;26;20469;-79
2024/04/25 04:41:03;;;;;;;5.70;2.67;;;;;;;;;;5338642;26;20309;-80
2024/04/25 04:43:30;;;;;;;1.40;1.40;;;;;;;;;;5327999;26;20303;-79
2024/04/25 04:46:00;;;;;;;1.45;1.45;;;;;;;;;;5329938;26;20219;-78
2024/04/25 04:48:28;;;;;;;2.33;2.17;;;;;;;;;;5348405;26;20300;-78
2024/04/25 04:51:01;;;;;;;1.30;1.30;;;;;;;;;;5329540;26;20220;-78
2024/04/25 04:53:28;;;;;;;0.98;0.93;;;;;;;;;;5334469;26;20224;-79
2024/04/25 04:55:56;;;;;;;0.85;0.85;;;;;;;;;;5324436;26;20259;-77
2024/04/25 04:58:23;;;;;;;3.40;3.20;;;;;;;;;;5335093;26;20254;-78
2024/04/25 05:00:51;;;;;;;3.78;3.58;;;;;;;;;;5317359;26;20269;-78
2024/04/25 05:03:19;;;;;;;2.17;2.08;;;;;;;;;;5326952;26;20512;-78
2024/04/25 05:05:46;;;;;;;4.40;4.20;;;;;;;;;;5329932;26;20224;-78
2024/04/25 05:08:14;;;;;;;5.13;2.55;;;;;;;;;;5331070;26;20258;-77
2024/04/25 05:10:42;;;;;;;3.38;2.55;;;;;;;;;;5334305;26;20259;-79
2024/04/25 05:13:09;;;;;;;3.78;3.45;;;;;;;;;;5328287;26;20255;-79
2024/04/25 05:15:37;;;;;;;3.45;3.28;;;;;;;;;;5310886;26;20259;-78
2024/04/25 05:18:05;;;;;;;6.82;6.25;;;;;;;;;;5337132;26;20489;-80
2024/04/25 05:20:32;;;;;;;3.05;2.95;;;;;;;;;;5346377;26;20267;-79
2024/04/25 05:23:00;;;;;;;3.63;3.50;;;;;;;;;;5318962;26;20267;-79
2024/04/25 05:25:27;;;;;;;2.55;2.45;;;;;;;;;;5325855;26;20267;-80
2024/04/25 05:27:54;;;;;;;2.55;2.40;;;;;;;;;;5327225;26;20290;-83
2024/04/25 05:30:23;;;;;;;1.70;1.70;;;;;;;;;;5309981;26;20218;-79
2024/04/25 05:32:50;;;;;;;1.50;1.50;;;;;;;;;;5338991;26;20234;-78
2024/04/25 05:35:18;;;;;;;2.55;2.42;;;;;;;;;;5326324;26;20285;-78
2024/04/25 05:37:45;;;;;;;7.00;4.82;;;;;;;;;;5328466;26;20219;-79
2024/04/25 05:40:13;;;;;;;2.38;2.28;;;;;;;;;;5332072;26;20235;-79
2024/04/25 05:42:40;;;;;;;2.05;1.95;;;;;;;;;;5326064;26;20223;-80
2024/04/25 05:45:08;;;;;;;4.72;3.10;;;;;;;;;;5326649;26;20263;-79
2024/04/25 05:47:35;;;;;;;1.92;1.85;;;;;;;;;;5330998;26;20234;-78
2024/04/25 05:50:03;;;;;;;1.60;1.55;;;;;;;;;;5332093;26;20310;-79
2024/04/25 05:52:35;;;;;;;2.28;2.17;;;;;;;;;;5331618;26;20370;-79
2024/04/25 05:55:03;;;;;;;3.63;3.35;;;;;;;;;;5323375;26;20258;-79
2024/04/25 05:57:30;;;;;;;2.10;2.00;;;;;;;;;;5322066;26;20219;-80
2024/04/25 05:59:58;;;;;;;1.63;1.58;;;;;;;;;;5322435;26;20234;-77
2024/04/25 06:02:25;;;;;;;1.63;1.52;;;;;;;;;;5329487;26;20219;-84
2024/04/25 06:04:53;;;;;;;0.70;0.70;;;;;;;;;;5335677;26;20227;-81
2024/04/25 06:07:20;;;;;;;2.35;2.25;;;;;;;;;;5327947;26;20522;-78
2024/04/25 06:09:49;;;;;;;4.80;3.17;;;;;;;;;;5326991;26;20226;-88
2024/04/25 06:12:16;;;;;;;1.67;1.60;;;;;;;;;;5336223;26;20255;-79
2024/04/25 06:14:44;;;;;;;1.10;1.10;;;;;;;;;;5328159;26;20261;-79
2024/04/25 06:17:11;;;;;;;1.35;1.33;;;;;;;;;;5322450;26;20243;-79
2024/04/25 06:19:39;;;;;;;1.88;1.77;;;;;;;;;;5327602;26;20232;-80
2024/04/25 06:22:06;;;;;;;0.90;0.90;;;;;;;;;;5325682;26;20268;-79
2024/04/25 06:24:34;;;;;;;2.45;2.35;;;;;;;;;;5326718;26;20391;-79
2024/04/25 06:27:02;;;;;;;1.13;1.13;;;;;;;;;;5342212;26;20262;-79
2024/04/25 06:29:30;;;;;;;1.05;1.05;;;;;;;;;;5332352;26;20327;-79
2024/04/25 06:31:57;;;;;;;8.50;3.42;;;;;;;;;;5334603;26;20435;-83
2024/04/25 06:34:25;;;;;;;1.08;1.08;;;;;;;;;;5324593;26;20228;-79
2024/04/25 06:36:52;;;;;;;4.68;4.45;;;;;;;;;;5308523;26;20262;-77
2024/04/25 06:39:20;;;;;;;1.30;1.30;;;;;;;;;;5314419;27;20228;-79
2024/04/25 06:41:47;;;;;;;0.75;0.75;;;;;;;;;;5325137;26;20268;-78
2024/04/25 06:44:24;;;;;;;1.17;1.17;;;;;;;;;;5335179;26;20235;-78
2024/04/25 06:47:01;;;;;;;1.17;1.17;;;;;;;;;;5334428;26;20239;-81
2024/04/25 06:49:28;;;;;;;1.92;1.83;;;;;;;;;;5321890;26;20225;-78
2024/04/25 06:51:56;;;;;;;0.70;0.70;;;;;;;;;;5337920;26;20251;-79
2024/04/25 06:54:24;;;;;;;1.15;1.15;;;;;;;;;;5334123;26;20284;-78
2024/04/25 06:56:55;;;;;;;0.90;0.90;;;;;;;;;;5323353;26;20458;-81
2024/04/25 06:59:23;;;;;;;0.98;0.98;;;;;;;;;;5321887;26;20227;-85
2024/04/25 07:01:50;;;;;;;1.00;1.00;;;;;;;;;;5321603;26;20330;-79
2024/04/25 07:04:18;;;;;;;0.77;0.77;;;;;;;;;;5327225;26;20654;-77
2024/04/25 07:06:46;;;;;;;1.53;1.53;;;;;;;;;;5314467;26;20449;-80
2024/04/25 07:09:13;;;;;;;0.80;0.80;;;;;;;;;;5320926;27;20553;-82
2024/04/25 07:11:41;;;;;;;1.23;1.23;;;;;;;;;;5320008;26;20459;-84
2024/04/25 07:14:08;;;;;;;1.00;1.00;;;;;;;;;;5323856;26;20442;-80
2024/04/25 07:16:36;;;;;;;1.30;1.30;;;;;;;;;;5315130;26;20461;-79
2024/04/25 07:19:03;;;;;;;1.23;1.10;;;;;;;;;;5340071;26;20656;-83
2024/04/25 07:21:31;;;;;;;0.90;0.90;;;;;;;;;;5322603;26;20778;-80
2024/04/25 07:23:58;;;;;;;0.90;0.90;;;;;;;;;;5322716;27;20491;-81
2024/04/25 07:26:29;;;;;;;1.23;1.10;;;;;;;;;;5343441;26;20420;-78
2024/04/25 07:28:57;;;;;;;1.30;1.30;;;;;;;;;;5336972;26;20671;-80
2024/04/25 07:31:24;;;;;;;1.63;1.53;;;;;;;;;;5322591;27;20498;-79
2024/04/25 07:33:53;;;;;;;1.43;1.33;;;;;;;;;;5323618;27;20423;-82
2024/04/25 07:36:21;;;;;;;1.00;1.00;;;;;;;;;;5311722;27;20621;-79
2024/04/25 07:38:48;;;;;;;1.40;1.40;;;;;;;;;;5315073;26;20424;-82
2024/04/25 07:41:16;;;;;;;1.40;1.40;;;;;;;;;;5298758;27;20456;-85
2024/04/25 07:43:45;;;;;;;1.63;1.43;;;;;;;;;;5290473;27;20437;-80
2024/04/25 07:46:13;;;;;;;2.07;1.97;;;;;;;;;;5299823;27;20421;-81
2024/04/25 07:48:44;;;;;;;1.63;1.53;;;;;;;;;;5325168;27;20474;-81
2024/04/25 07:51:11;;;;;;;2.47;2.37;;;;;;;;;;5330922;26;20502;-81
2024/04/25 07:53:39;;;;;;;1.50;1.50;;;;;;;;;;5339451;26;20567;-82
2024/04/25 07:56:07;;;;;;;3.47;3.37;;;;;;;;;;5329318;26;20683;-82
2024/04/25 07:58:35;;;;;;;1.33;1.33;;;;;;;;;;5326368;26;20527;-81
2024/04/25 08:01:02;;;;;;;1.10;1.10;;;;;;;;;;5325204;26;20429;-82
2024/04/25 08:03:30;;;;;;;1.30;1.30;;;;;;;;;;5320848;26;20729;-87
2024/04/25 08:05:58;;;;;;;1.10;1.10;;;;;;;;;;5319304;27;20465;-79
2024/04/25 08:08:26;;;;;;;2.30;2.20;;;;;;;;;;5334611;26;20509;-80
2024/04/25 08:10:53;;;;;;;1.30;1.27;;;;;;;;;;5334167;26;20499;-80
2024/04/25 08:13:21;;;;;;;1.50;1.50;;;;;;;;;;5327528;26;20504;-80
2024/04/25 08:15:49;;;;;;;1.43;1.43;;;;;;;;;;5322418;26;20462;-80
2024/04/25 08:18:17;;;;;;;1.20;1.20;;;;;;;;;;5335012;26;20450;-80
2024/04/25 08:20:45;;;;;;;1.03;1.03;;;;;;;;;;5322933;26;20477;-79
2024/04/25 08:23:13;;;;;;;0.90;0.90;;;;;;;;;;5321113;26;20515;-80
2024/04/25 08:25:40;;;;;;;1.00;1.00;;;;;;;;;;5319720;26;20419;-79
2024/04/25 08:28:10;;;;;;;1.73;1.63;;;;;;;;;;5323192;26;20516;-83
2024/04/25 08:30:38;;;;;;;1.83;1.73;;;;;;;;;;5336360;26;20480;-79
2024/04/25 08:33:08;;;;;;;1.60;1.50;;;;;;;;;;5322286;26;20441;-90
2024/04/25 08:35:35;;;;;;;1.00;1.00;;;;;;;;;;5323067;26;20438;-79
2024/04/25 08:38:03;;;;;;;1.33;1.33;;;;;;;;;;5331089;26;20461;-82
2024/04/25 08:40:30;;;;;;;1.10;1.10;;;;;;;;;;5329181;26;20481;-86
2024/04/25 08:42:58;;;;;;;2.50;2.30;;;;;;;;;;5324716;26;20474;-86
2024/04/25 08:45:27;;;;;;;0.90;0.90;;;;;;;;;;5318599;26;20424;-81
2024/04/25 08:47:56;;;;;;;10.53;1.50;;;;;;;;;;5323931;26;20443;-79
2024/04/25 08:50:25;;;;;;;1.40;1.33;;;;;;;;;;5323366;26;20451;-81
2024/04/25 08:52:54;;;;;;;0.97;0.97;;;;;;;;;;5318226;26;20472;-80
2024/04/25 08:55:21;;;;;;;1.27;1.27;;;;;;;;;;5329873;26;20509;-84
2024/04/25 08:57:49;;;;;;;1.23;1.23;;;;;;;;;;5335787;26;20611;-82
2024/04/25 09:00:18;;;;;;;1.03;1.03;;;;;;;;;;5312312;27;20454;-80
2024/04/25 09:02:46;;;;;;;1.10;1.10;;;;;;;;;;5315392;26;20471;-80
2024/04/25 09:05:14;;;;;;;1.40;1.40;;;;;;;;;;5325865;26;20412;-83
2024/04/25 09:07:44;;;;;;;1.50;1.50;;;;;;;;;;5320738;26;20488;-80
2024/04/25 09:10:12;;;;;;;1.87;1.67;;;;;;;;;;5304181;27;20648;-80
2024/04/25 09:12:40;;;;;;;1.93;1.73;;;;;;;;;;5329645;26;20550;-79
2024/04/25 09:15:07;;;;;;;1.00;1.00;;;;;;;;;;5319239;26;20484;-80
2024/04/25 09:17:35;;;;;;;1.10;1.10;;;;;;;;;;5329694;26;20479;-79
2024/04/25 09:20:06;;;;;;;6.33;2.07;;;;;;;;;;5309635;27;20475;-80
2024/04/25 09:22:34;;;;;;;1.00;1.00;;;;;;;;;;5328406;26;20557;-81
2024/04/25 09:25:03;;;;;;;1.50;1.40;;;;;;;;;;5341693;26;20451;-84
2024/04/25 09:27:31;;;;;;;2.40;2.30;;;;;;;;;;5340796;26;20426;-84
2024/04/25 09:29:58;;;;;;;0.90;0.90;;;;;;;;;;5334397;26;20479;-79
2024/04/25 09:32:26;;;;;;;0.90;0.90;;;;;;;;;;5338705;26;20618;-84
2024/04/25 09:34:57;;;;;;;0.90;0.90;;;;;;;;;;5337964;26;20609;-81
2024/04/25 09:37:31;;;;;;;1.70;1.60;;;;;;;;;;5334951;26;20702;-85
2024/04/25 09:39:59;;;;;;;0.90;0.90;;;;;;;;;;5339165;26;20632;-80
2024/04/25 09:42:34;;;;;;;1.40;1.40;;;;;;;;;;5323079;26;20483;-80
2024/04/25 09:45:06;;;;;;;3.40;2.00;;;;;;;;;;5323909;27;20478;-83
2024/04/25 09:47:37;;;;;;;1.30;1.30;;;;;;;;;;5312398;26;20423;-80
2024/04/25 09:50:11;;;;;;;1.10;1.10;;;;;;;;;;5322723;26;20483;-82
2024/04/25 09:52:53;;;;;;;1.40;1.40;;;;;;;;;;5322224;26;20515;-80
2024/04/25 09:55:21;;;;;;;1.20;1.20;;;;;;;;;;5315350;26;20630;-82
2024/04/25 09:57:51;;;;;;;0.80;0.80;;;;;;;;;;5320685;26;20502;-80
2024/04/25 10:00:18;;;;;;;1.53;1.30;;;;;;;;;;5326245;26;20493;-80
2024/04/25 10:02:48;;;;;;;0.70;0.70;;;;;;;;;;5313802;26;20440;-80
2024/04/25 10:05:15;;;;;;;0.80;0.80;;;;;;;;;;5329992;26;20896;-82
2024/04/25 10:07:43;;;;;;;0.80;0.80;;;;;;;;;;5326016;26;20519;-83
2024/04/25 10:10:11;;;;;;;0.80;0.80;;;;;;;;;;5324653;26;20504;-83
2024/04/25 10:12:39;;;;;;;1.00;1.00;;;;;;;;;;5332344;26;20484;-81
2024/04/25 10:15:06;;;;;;;1.20;1.20;;;;;;;;;;5339088;26;20461;-82
2024/04/25 10:17:34;;;;;;;1.00;1.00;;;;;;;;;;5327278;26;20512;-82
2024/04/25 10:20:03;;;;;;;0.80;0.80;;;;;;;;;;5316938;27;20520;-81
2024/04/25 10:22:33;;;;;;;0.90;0.90;;;;;;;;;;5330148;26;20443;-84
2024/04/25 10:25:04;;;;;;;0.80;0.80;;;;;;;;;;5327351;26;20508;-80
2024/04/25 10:27:34;;;;;;;0.70;0.70;;;;;;;;;;5339726;26;20466;-84
2024/04/25 10:30:03;;;;;;;1.00;1.00;;;;;;;;;;5343493;26;20502;-82
2024/04/25 10:32:31;;;;;;;0.90;0.90;;;;;;;;;;5328651;26;20482;-83
2024/04/25 10:35:00;;;;;;;0.93;0.93;;;;;;;;;;5337742;26;20443;-81
2024/04/25 10:37:28;;;;;;;1.03;1.03;;;;;;;;;;5316479;26;20495;-80
2024/04/25 10:39:59;;;;;;;0.80;0.80;;;;;;;;;;5315129;27;20605;-82
2024/04/25 10:42:27;;;;;;;0.90;0.90;;;;;;;;;;5328746;27;20713;-82
2024/04/25 10:44:54;;;;;;;0.90;0.90;;;;;;;;;;5355751;26;20484;-82
2024/04/25 10:47:22;;;;;;;0.80;0.80;;;;;;;;;;5355593;26;20446;-84
2024/04/25 10:49:50;;;;;;;0.73;0.73;;;;;;;;;;5336369;26;20945;-80
2024/04/25 10:52:17;;;;;;;0.90;0.90;;;;;;;;;;5331307;26;20527;-83
2024/04/25 10:54:45;;;;;;;0.90;0.90;;;;;;;;;;5325370;26;20478;-79
2024/04/25 10:57:12;;;;;;;0.73;0.73;;;;;;;;;;5328384;26;20439;-81
2024/04/25 10:59:41;;;;;;;0.90;0.90;;;;;;;;;;5331360;26;20462;-81
2024/04/25 11:02:09;;;;;;;0.80;0.80;;;;;;;;;;5316246;26;20428;-83
2024/04/25 11:04:37;;;;;;;1.03;1.00;;;;;;;;;;5330473;26;20497;-83
2024/04/25 11:07:05;;;;;;;0.77;0.77;;;;;;;;;;5326151;26;20862;-83
2024/04/25 11:09:34;;;;;;;0.77;0.77;;;;;;;;;;5328550;26;20503;-83
2024/04/25 11:12:01;;;;;;;0.80;0.80;;;;;;;;;;5334088;26;20507;-85
2024/04/25 11:14:28;;;;;;;1.00;1.00;;;;;;;;;;5316416;26;20463;-83
2024/04/25 11:16:56;;;;;;;0.80;0.80;;;;;;;;;;5330798;26;20492;-81
2024/04/25 11:19:24;;;;;;;0.70;0.70;;;;;;;;;;5365010;21;20477;-81
2024/04/25 11:21:53;;;;;;;0.70;0.70;;;;;;;;;;5341457;26;20461;-80
2024/04/25 11:24:22;;;;;;;0.80;0.80;;;;;;;;;;5358961;26;20442;-80
2024/04/25 11:26:50;;;;;;;0.80;0.80;;;;;;;;;;5359570;26;20538;-84
2024/04/25 11:29:17;;;;;;;0.70;0.70;;;;;;;;;;5359001;26;20458;-83
2024/04/25 11:31:45;;;;;;;1.77;1.67;;;;;;;;;;5357711;26;20550;-83
2024/04/25 11:34:20;;;;;;;1.33;1.27;;;;;;;;;;5347661;26;20736;-83
2024/04/25 11:37:00;;;;;;;1.90;1.80;;;;;;;;;;5353938;26;20499;-84
2024/04/25 11:39:32;;;;;;;0.70;0.70;;;;;;;;;;5359617;26;20453;-80
2024/04/25 11:42:02;;;;;;;0.90;0.90;;;;;;;;;;5352947;26;20980;-84
2024/04/25 11:44:31;;;;;;;0.70;0.70;;;;;;;;;;5356675;26;20497;-78
2024/04/25 11:47:00;;;;;;;0.70;0.70;;;;;;;;;;5359649;26;20480;-81
2024/04/25 11:49:28;;;;;;;0.90;0.90;;;;;;;;;;5358919;26;20436;-80
2024/04/25 11:51:55;;;;;;;0.80;0.80;;;;;;;;;;5357982;26;20520;-81
2024/04/25 11:54:23;;;;;;;0.80;0.80;;;;;;;;;;5357643;26;20515;-80
2024/04/25 11:56:50;;;;;;;0.70;0.70;;;;;;;;;;5358451;26;20478;-84
2024/04/25 11:59:18;;;;;;;2.10;2.00;;;;;;;;;;5359289;26;20551;-84
2024/04/25 12:01:45;;;;;;;0.80;0.80;;;;;;;;;;5359775;26;20522;-83
2024/04/25 12:04:14;;;;;;;1.20;1.20;;;;;;;;;;5359018;26;20517;-89
2024/04/25 12:06:41;;;;;;;1.17;1.17;;;;;;;;;;5387468;26;20472;-83
2024/04/25 12:09:08;;;;;;;1.10;1.10;;;;;;;;;;5386316;26;20495;-81
2024/04/25 12:11:38;;;;;;;0.80;0.80;;;;;;;;;;5359025;26;20546;-88
2024/04/25 12:14:06;;;;;;;0.80;0.80;;;;;;;;;;5347476;26;20426;-85
2024/04/25 12:16:34;;;;;;;1.03;1.03;;;;;;;;;;5361731;26;20425;-81
2024/04/25 12:19:02;;;;;;;0.80;0.80;;;;;;;;;;5359873;26;20433;-85
2024/04/25 12:21:29;;;;;;;0.83;0.83;;;;;;;;;;5360590;26;20799;-82
2024/04/25 12:23:57;;;;;;;0.80;0.80;;;;;;;;;;5347460;26;20517;-84
2024/04/25 12:26:24;;;;;;;0.80;0.80;;;;;;;;;;5355949;26;20438;-78
2024/04/25 12:28:52;;;;;;;0.80;0.80;;;;;;;;;;5358598;26;20422;-79
2024/04/25 12:31:20;;;;;;;0.87;0.87;;;;;;;;;;5387698;26;20564;-86
2024/04/25 12:33:47;;;;;;;1.17;1.07;;;;;;;;;;5387288;26;20449;-82
2024/04/25 12:36:15;;;;;;;0.70;0.70;;;;;;;;;;5358986;26;20449;-80
2024/04/25 12:38:42;;;;;;;0.80;0.80;;;;;;;;;;5358676;26;20438;-81
2024/04/25 12:41:10;;;;;;;0.80;0.80;;;;;;;;;;5359661;26;20438;-86
2024/04/25 12:43:37;;;;;;;1.30;1.30;;;;;;;;;;5359784;26;20429;-83
2024/04/25 12:46:04;;;;;;;0.90;0.90;;;;;;;;;;5359151;26;20513;-81
2024/04/25 12:48:32;;;;;;;1.00;1.00;;;;;;;;;;5363086;26;20446;-84
2024/04/25 12:50:59;;;;;;;0.90;0.90;;;;;;;;;;5356157;26;20442;-79
2024/04/25 12:53:27;;;;;;;1.53;1.43;;;;;;;;;;5368671;26;20469;-79
2024/04/25 12:55:55;;;;;;;0.80;0.80;;;;;;;;;;5364847;26;20535;-85
2024/04/25 12:58:23;;;;;;;1.00;1.00;;;;;;;;;;5361066;26;20480;-85
2024/04/25 13:00:50;;;;;;;1.10;1.10;;;;;;;;;;5362000;26;20675;-82
2024/04/25 13:03:19;;;;;;;0.73;0.73;;;;;;;;;;5360679;26;20445;-83
2024/04/25 13:05:47;;;;;;;0.70;0.70;;;;;;;;;;5360065;26;20530;-84
2024/04/25 13:08:14;;;;;;;0.70;0.70;;;;;;;;;;5361020;26;20442;-82
2024/04/25 13:10:44;;;;;;;0.95;0.95;;;;;;;;;;5360555;26;20233;-82
2024/04/25 13:13:12;;;;;;;2.17;2.08;;;;;;;;;;5357804;26;20282;-86
2024/04/25 13:15:39;;;;;;;0.70;0.70;;;;;;;;;;5360223;26;20259;-80
2024/04/25 13:18:08;;;;;;;2.03;1.80;;;;;;;;;;5359106;26;20659;-85
2024/04/25 13:20:35;;;;;;;0.60;0.60;;;;;;;;;;5358825;26;20843;-83
2024/04/25 13:23:03;;;;;;;0.80;0.80;;;;;;;;;;5348975;26;20255;-84
2024/04/25 13:25:33;;;;;;;0.70;0.70;;;;;;;;;;5388513;26;20264;-79
2024/04/25 13:28:00;;;;;;;0.60;0.60;;;;;;;;;;5360385;26;20256;-81
2024/04/25 13:30:30;;;;;;;1.40;1.30;;;;;;;;;;5361027;26;20219;-81
2024/04/25 13:32:57;;;;;;;0.70;0.70;;;;;;;;;;5358329;26;20216;-84
2024/04/25 13:35:25;;;;;;;0.70;0.70;;;;;;;;;;5368992;26;20254;-88
2024/04/25 13:37:53;;;;;;;0.80;0.80;;;;;;;;;;5387427;26;20236;-83
2024/04/25 13:40:24;;;;;;;0.70;0.70;;;;;;;;;;5364446;26;20224;-81
2024/04/25 13:42:54;;;;;;;0.80;0.80;;;;;;;;;;5365099;26;20224;-80
2024/04/25 13:45:21;;;;;;;1.05;0.95;;;;;;;;;;5356648;26;20221;-82
2024/04/25 13:47:49;;;;;;;0.60;0.60;;;;;;;;;;5358422;26;20309;-84
2024/04/25 13:50:17;;;;;;;0.70;0.70;;;;;;;;;;5366299;26;20309;-81
2024/04/25 13:52:45;;;;;;;0.70;0.70;;;;;;;;;;5365170;26;20224;-80
2024/04/25 13:55:14;;;;;;;0.60;0.60;;;;;;;;;;5348789;26;20281;-88
2024/04/25 13:57:41;;;;;;;0.75;0.75;;;;;;;;;;5358680;26;20231;-81
2024/04/25 14:00:09;;;;;;;2.10;2.00;;;;;;;;;;5358338;26;20283;-82
2024/04/25 14:02:36;;;;;;;0.60;0.60;;;;;;;;;;5358033;26;20276;-78
2024/04/25 14:05:04;;;;;;;0.60;0.60;;;;;;;;;;5358454;26;20314;-85
2024/04/25 14:07:31;;;;;;;1.45;1.40;;;;;;;;;;5367954;26;20229;-80
2024/04/25 14:09:59;;;;;;;1.70;1.60;;;;;;;;;;5353246;26;20221;-86
2024/04/25 14:12:27;;;;;;;0.77;0.77;;;;;;;;;;5357344;26;20251;-85
2024/04/25 14:14:56;;;;;;;0.77;0.77;;;;;;;;;;5359380;26;20292;-79
2024/04/25 14:17:23;;;;;;;2.05;1.95;;;;;;;;;;5358793;26;20239;-89
2024/04/25 14:19:51;;;;;;;5.10;2.72;;;;;;;;;;5356990;26;20277;-82
2024/04/25 14:22:18;;;;;;;1.00;1.00;;;;;;;;;;5354387;26;20267;-81
2024/04/25 14:24:52;;;;;;;0.80;0.80;;;;;;;;;;5354963;26;20288;-78
2024/04/25 14:30:07;;;;;;;0.90;0.90;;;;;;;;;;5356912;26;20458;-83
2024/04/25 14:32:36;;;;;;;1.17;0.90;;;;;;;;;;5354817;26;20224;-80
2024/04/25 14:35:04;;;;;;;0.70;0.70;;;;;;;;;;5354293;26;20482;-78
2024/04/25 14:37:32;;;;;;;0.60;0.60;;;;;;;;;;5356591;26;20227;-83
2024/04/25 14:39:59;;;;;;;0.70;0.70;;;;;;;;;;5356827;26;20276;-82
2024/04/25 14:42:26;;;;;;;0.70;0.70;;;;;;;;;;5347900;26;20263;-78
2024/04/25 14:44:54;;;;;;;0.60;0.60;;;;;;;;;;5332750;26;20658;-79
2024/04/25 14:47:21;;;;;;;0.70;0.70;;;;;;;;;;5357214;26;20224;-80
2024/04/25 14:49:49;;;;;;;0.80;0.80;;;;;;;;;;5349498;26;20222;-80
2024/04/25 14:52:16;;;;;;;0.80;0.80;;;;;;;;;;5356013;26;20232;-81
2024/04/25 14:54:43;;;;;;;0.60;0.60;;;;;;;;;;5357142;26;20227;-80